Time;durP1;ratioP1;P1;durP2;ratioP2;P2;SDS_P1;SDS_P2;PMS_P1;PMS_P2;Temp;Humidity;BMP_temperature;BMP_pressure;BME280_temperature;BME280_humidity;BME280_pressure;Samples;Min_cycle;Max_cycle;Signal;HPM_P1;HPM_P2
2023/10/07 00:01:25;;;;;;;8.27;2.78;;;16.90;99.90;;;;;;5058187;28;20128;-58
2023/10/07 00:03:53;;;;;;;4.88;2.72;;;16.80;99.90;;;;;;5068258;28;20144;-58
2023/10/07 00:06:27;;;;;;;6.68;2.78;;;16.90;99.90;;;;;;5058136;28;20071;-58
2023/10/07 00:08:54;;;;;;;9.55;3.28;;;16.90;99.90;;;;;;5067973;28;20086;-59
2023/10/07 00:11:22;;;;;;;7.25;3.70;;;16.90;99.90;;;;;;5060884;28;20095;-58
2023/10/07 00:13:53;;;;;;;8.60;3.65;;;16.90;99.90;;;;;;5049589;28;20496;-59
2023/10/07 00:16:23;;;;;;;9.27;3.35;;;16.90;99.90;;;;;;5056900;28;20072;-58
2023/10/07 00:18:50;;;;;;;10.27;3.80;;;16.90;99.90;;;;;;5069772;28;20080;-60
2023/10/07 00:21:25;;;;;;;8.85;3.97;;;16.90;99.90;;;;;;5062960;28;20491;-59
2023/10/07 00:23:54;;;;;;;7.85;3.38;;;17.00;99.90;;;;;;5048463;28;20496;-59
2023/10/07 00:26:21;;;;;;;16.67;4.25;;;17.00;99.90;;;;;;5053928;28;20128;-58
2023/10/07 00:29:00;;;;;;;24.70;6.88;;;17.00;99.90;;;;;;5068876;28;20113;-58
2023/10/07 00:31:32;;;;;;;71.72;21.92;;;17.00;99.90;;;;;;5056022;28;20045;-59
2023/10/07 00:34:14;;;;;;;39.25;9.70;;;17.00;99.90;;;;;;5068925;28;20410;-58
2023/10/07 00:39:08;;;;;;;7.35;2.90;;;17.10;99.90;;;;;;5059431;28;20200;-59
2023/10/07 00:41:54;;;;;;;6.30;2.83;;;17.00;99.90;;;;;;5062337;28;20056;-58
2023/10/07 00:44:22;;;;;;;7.63;2.67;;;17.00;99.90;;;;;;5029052;28;20089;-58
2023/10/07 00:49:40;;;;;;;7.85;3.05;;;17.00;99.90;;;;;;5040870;28;20045;-58
2023/10/07 00:52:22;;;;;;;7.30;2.25;;;17.00;99.90;;;;;;5052851;28;20044;-58
2023/10/07 01:02:51;;;;;;;7.70;2.75;;;17.00;99.90;;;;;;5060601;28;20124;-58
2023/10/07 01:05:33;;;;;;;9.80;2.90;;;17.00;99.90;;;;;;5047999;28;20279;-58
2023/10/07 01:08:00;;;;;;;5.35;2.58;;;16.90;99.90;;;;;;5042546;28;20049;-58
2023/10/07 01:10:31;;;;;;;5.10;2.70;;;16.90;99.90;;;;;;5047441;28;20332;-58
2023/10/07 01:13:02;;;;;;;9.55;3.25;;;16.90;99.90;;;;;;5052271;28;20611;-58
2023/10/07 01:15:31;;;;;;;8.65;2.90;;;16.90;99.90;;;;;;5048250;28;20071;-58
2023/10/07 01:18:05;;;;;;;7.60;2.10;;;16.90;99.90;;;;;;5059687;28;20054;-59
2023/10/07 01:20:58;;;;;;;6.88;2.67;;;16.90;99.90;;;;;;5063728;28;20496;-58
2023/10/07 01:23:24;;;;;;;7.00;2.47;;;16.90;99.90;;;;;;5053520;28;20045;-59
2023/10/07 01:25:51;;;;;;;7.20;2.78;;;16.80;99.90;;;;;;5055933;28;20048;-58
2023/10/07 01:28:20;;;;;;;8.05;3.17;;;16.80;99.90;;;;;;5063473;28;20229;-58
2023/10/07 01:33:40;;;;;;;7.32;2.70;;;16.80;99.90;;;;;;5061258;28;20049;-57
2023/10/07 01:36:11;;;;;;;7.90;3.00;;;16.70;99.90;;;;;;5067706;28;20048;-57
2023/10/07 01:38:44;;;;;;;7.18;2.88;;;16.60;99.90;;;;;;5034460;28;20076;-57
2023/10/07 01:41:14;;;;;;;8.23;3.35;;;16.60;99.90;;;;;;5051337;28;20048;-57
2023/10/07 01:43:41;;;;;;;8.68;3.30;;;16.60;99.90;;;;;;5055501;28;20572;-58
2023/10/07 01:46:10;;;;;;;7.97;2.83;;;16.60;99.90;;;;;;5067388;28;20121;-58
2023/10/07 01:48:37;;;;;;;8.75;2.75;;;16.60;99.90;;;;;;5063160;28;20048;-58
2023/10/07 01:51:05;;;;;;;8.80;3.05;;;16.50;99.90;;;;;;5049441;28;20084;-58
2023/10/07 01:53:38;;;;;;;8.45;3.28;;;16.50;99.90;;;;;;5051168;28;20085;-58
2023/10/07 01:56:05;;;;;;;10.27;3.50;;;16.50;99.90;;;;;;5047279;28;20500;-57
2023/10/07 01:58:32;;;;;;;10.70;3.25;;;16.40;99.90;;;;;;5029325;28;20041;-58
2023/10/07 02:00:59;;;;;;;12.85;3.88;;;16.40;99.90;;;;;;5061545;28;20044;-58
2023/10/07 02:03:26;;;;;;;9.07;3.25;;;16.40;99.90;;;;;;5061684;28;20503;-57
2023/10/07 02:05:53;;;;;;;7.03;3.17;;;16.50;99.90;;;;;;5055678;28;20053;-58
2023/10/07 02:08:22;;;;;;;16.55;2.92;;;16.50;99.90;;;;;;5049305;28;20049;-57
2023/10/07 02:10:58;;;;;;;10.23;3.53;;;16.40;99.90;;;;;;5056064;28;20131;-57
2023/10/07 02:13:27;;;;;;;6.93;3.03;;;16.40;99.90;;;;;;5033767;28;20056;-58
2023/10/07 02:15:55;;;;;;;6.10;2.83;;;16.40;99.90;;;;;;5046106;28;20040;-57
2023/10/07 02:18:28;;;;;;;12.57;3.20;;;16.40;99.90;;;;;;5065054;28;20059;-58
2023/10/07 02:21:08;;;;;;;5.82;2.70;;;16.40;99.90;;;;;;5046679;28;20048;-59
2023/10/07 02:23:43;;;;;;;6.30;3.28;;;16.40;99.90;;;;;;5045728;28;20048;-58
2023/10/07 02:26:19;;;;;;;6.93;3.50;;;16.40;99.90;;;;;;5058271;28;20045;-58
2023/10/07 02:28:50;;;;;;;9.20;3.13;;;16.40;99.90;;;;;;5046713;28;20048;-58
2023/10/07 02:31:19;;;;;;;9.13;3.08;;;16.40;99.90;;;;;;5038115;28;20483;-58
2023/10/07 02:33:51;;;;;;;8.18;3.33;;;16.50;99.90;;;;;;5065904;28;20056;-58
2023/10/07 02:36:37;;;;;;;9.35;3.22;;;16.50;99.90;;;;;;5038783;28;20144;-58
2023/10/07 02:39:18;;;;;;;7.28;2.85;;;16.50;99.90;;;;;;5065375;28;20079;-58
2023/10/07 02:41:47;;;;;;;6.25;2.90;;;16.50;99.90;;;;;;5045711;28;20388;-57
2023/10/07 02:44:27;;;;;;;7.03;2.80;;;16.50;99.90;;;;;;5059049;28;20060;-58
2023/10/07 02:46:56;;;;;;;7.22;3.00;;;16.50;99.90;;;;;;5046697;28;20052;-58
2023/10/07 02:49:25;;;;;;;5.30;2.60;;;16.50;99.90;;;;;;5048222;28;20077;-58
2023/10/07 02:51:58;;;;;;;7.15;2.60;;;16.50;99.90;;;;;;5055215;28;20086;-58
2023/10/07 02:54:33;;;;;;;4.38;2.60;;;16.50;99.90;;;;;;5064939;28;20055;-58
2023/10/07 02:59:36;;;;;;;7.50;2.20;;;16.50;99.90;;;;;;5047131;28;20496;-58
2023/10/07 03:07:41;;;;;;;7.10;2.35;;;16.50;99.90;;;;;;5040240;28;20118;-57
2023/10/07 03:12:57;;;;;;;6.32;2.60;;;16.50;99.90;;;;;;5042039;28;20454;-57
2023/10/07 03:18:01;;;;;;;7.60;2.22;;;16.50;99.90;;;;;;5050493;28;20052;-58
2023/10/07 03:20:28;;;;;;;4.35;2.20;;;16.40;99.90;;;;;;5052535;28;20580;-58
2023/10/07 03:23:11;;;;;;;7.07;3.05;;;16.40;99.90;;;;;;5057929;28;20329;-58
2023/10/07 03:28:20;;;;;;;8.55;2.22;;;16.30;99.90;;;;;;5048723;28;20505;-58
2023/10/07 03:30:56;;;;;;;8.52;2.85;;;16.20;99.90;;;;;;5067965;28;20045;-60
2023/10/07 03:33:32;;;;;;;5.47;2.42;;;16.20;99.90;;;;;;5061546;28;20110;-58
2023/10/07 03:36:14;;;;;;;9.73;2.92;;;16.20;99.90;;;;;;5050859;28;20638;-57
2023/10/07 03:38:42;;;;;;;6.47;2.40;;;16.10;99.90;;;;;;5048428;28;20518;-58
2023/10/07 03:41:09;;;;;;;6.30;2.80;;;16.10;99.90;;;;;;5048928;28;20044;-58
2023/10/07 03:43:37;;;;;;;6.28;2.88;;;16.10;99.90;;;;;;5059937;28;20239;-58
2023/10/07 03:46:04;;;;;;;11.88;3.72;;;16.10;99.90;;;;;;5032601;28;20469;-58
2023/10/07 03:48:31;;;;;;;7.25;3.20;;;16.10;99.90;;;;;;5055215;28;20060;-58
2023/10/07 03:51:09;;;;;;;7.13;2.78;;;16.10;99.90;;;;;;5048864;28;20044;-57
2023/10/07 03:53:45;;;;;;;6.22;2.63;;;16.00;99.90;;;;;;5057484;28;20055;-58
2023/10/07 03:56:13;;;;;;;8.18;3.28;;;16.00;99.90;;;;;;5069763;28;20597;-58
2023/10/07 03:58:43;;;;;;;6.45;2.08;;;16.00;99.90;;;;;;5034102;28;20106;-58
2023/10/07 04:01:22;;;;;;;9.52;3.17;;;16.00;99.90;;;;;;5046574;28;20479;-58
2023/10/07 04:03:50;;;;;;;7.28;2.67;;;16.00;99.90;;;;;;5056713;28;20060;-57
2023/10/07 04:06:18;;;;;;;7.75;3.08;;;16.00;99.90;;;;;;5044667;28;20049;-58
2023/10/07 04:08:52;;;;;;;9.40;2.70;;;16.00;99.90;;;;;;5061229;28;20479;-58
2023/10/07 04:11:25;;;;;;;11.32;2.92;;;16.00;99.90;;;;;;5049757;28;20091;-58
2023/10/07 04:13:56;;;;;;;9.55;3.00;;;16.00;99.90;;;;;;5053285;28;20511;-57
2023/10/07 04:16:24;;;;;;;9.07;3.00;;;16.00;99.90;;;;;;5051619;28;20048;-58
2023/10/07 04:18:53;;;;;;;5.40;2.55;;;16.10;99.90;;;;;;5064449;28;20056;-58
2023/10/07 04:21:24;;;;;;;8.68;3.13;;;16.10;99.90;;;;;;5019423;28;20045;-58
2023/10/07 04:23:51;;;;;;;6.82;2.30;;;16.10;99.90;;;;;;5062763;28;20044;-58
2023/10/07 04:26:20;;;;;;;7.22;2.70;;;16.10;99.90;;;;;;5050811;28;20699;-58
2023/10/07 04:28:48;;;;;;;7.63;2.92;;;16.10;99.90;;;;;;5056774;28;20084;-57
2023/10/07 04:31:29;;;;;;;12.48;3.20;;;16.10;99.90;;;;;;5052856;28;20053;-57
2023/10/07 04:34:01;;;;;;;9.27;3.20;;;16.10;99.90;;;;;;5039422;28;20049;-58
2023/10/07 04:36:33;;;;;;;8.30;2.00;;;16.10;99.90;;;;;;5050640;28;20060;-58
2023/10/07 04:39:16;;;;;;;6.05;2.38;;;16.00;99.90;;;;;;5048495;28;20614;-58
2023/10/07 04:41:43;;;;;;;8.60;2.95;;;16.00;99.90;;;;;;5048488;28;20049;-58
2023/10/07 04:44:27;;;;;;;9.27;2.58;;;16.00;99.90;;;;;;5029629;28;20040;-57
2023/10/07 04:46:57;;;;;;;;;;;15.90;99.90;;;;;;5049307;28;20435;-58
2023/10/07 04:49:35;;;;;;;8.13;2.83;;;15.90;99.90;;;;;;5049354;28;19921;-59
2023/10/07 04:52:05;;;;;;;5.30;2.67;;;15.90;99.90;;;;;;5065454;28;20052;-58
2023/10/07 04:54:35;;;;;;;6.70;2.42;;;15.80;99.90;;;;;;5060866;28;20072;-58
2023/10/07 04:57:09;;;;;;;6.45;2.80;;;15.80;99.90;;;;;;5064564;28;20060;-58
2023/10/07 04:59:45;;;;;;;7.82;2.70;;;15.80;99.90;;;;;;5061429;28;20092;-58
2023/10/07 05:02:12;;;;;;;10.25;2.72;;;15.70;99.90;;;;;;5063944;28;20049;-58
2023/10/07 05:04:41;;;;;;;8.68;3.55;;;15.70;99.90;;;;;;5063620;28;20048;-57
2023/10/07 05:07:10;;;;;;;9.48;2.92;;;15.70;99.90;;;;;;5037220;28;20045;-57
2023/10/07 05:09:38;;;;;;;11.10;3.00;;;15.60;99.90;;;;;;5047765;28;20410;-62
2023/10/07 05:12:06;;;;;;;12.30;3.25;;;15.60;99.90;;;;;;5048361;28;20094;-58
2023/10/07 05:14:35;;;;;;;11.13;3.53;;;15.50;99.90;;;;;;5049923;28;20044;-57
2023/10/07 05:17:02;;;;;;;9.23;2.97;;;15.50;99.90;;;;;;5058020;28;20080;-58
2023/10/07 05:19:30;;;;;;;6.80;3.25;;;15.50;99.90;;;;;;5050683;28;20440;-58
2023/10/07 05:22:14;;;;;;;13.80;4.25;;;15.50;99.90;;;;;;5031819;28;20041;-56
2023/10/07 05:24:46;;;;;;;5.45;2.65;;;15.40;99.90;;;;;;5024095;28;20060;-58
2023/10/07 05:27:13;;;;;;;10.00;3.60;;;15.40;99.90;;;;;;5043883;28;20052;-58
2023/10/07 05:29:43;;;;;;;8.15;3.47;;;15.40;99.90;;;;;;5048532;28;20094;-58
2023/10/07 05:32:10;;;;;;;11.23;2.83;;;15.40;99.90;;;;;;5025051;28;20072;-57
2023/10/07 05:34:37;;;;;;;9.02;3.45;;;15.40;99.90;;;;;;5048559;28;20293;-58
2023/10/07 05:37:10;;;;;;;10.02;3.20;;;15.40;99.90;;;;;;5056140;28;20132;-58
2023/10/07 05:39:41;;;;;;;7.65;3.63;;;15.40;99.90;;;;;;5067603;28;20052;-56
2023/10/07 05:42:11;;;;;;;11.52;3.65;;;15.40;99.90;;;;;;5054953;28;20674;-59
2023/10/07 05:44:39;;;;;;;8.40;3.13;;;15.40;99.90;;;;;;5052759;28;20128;-57
2023/10/07 05:47:08;;;;;;;11.45;3.78;;;15.40;99.90;;;;;;5035336;28;20059;-58
2023/10/07 05:49:37;;;;;;;11.43;3.67;;;15.40;99.90;;;;;;5067607;28;20053;-58
2023/10/07 05:52:05;;;;;;;6.55;3.08;;;15.40;99.90;;;;;;5037101;28;20057;-58
2023/10/07 05:54:31;;;;;;;6.90;3.33;;;15.40;99.90;;;;;;5067636;28;20055;-57
2023/10/07 05:56:59;;;;;;;6.53;2.65;;;15.40;99.90;;;;;;5062870;28;20052;-58
2023/10/07 05:59:33;;;;;;;8.02;3.70;;;15.40;99.90;;;;;;5048266;28;20135;-57
2023/10/07 06:02:05;;;;;;;11.57;3.90;;;15.40;99.90;;;;;;4695692;28;9999927;-57
2023/10/07 06:04:33;;;;;;;6.27;3.30;;;15.40;99.90;;;;;;5046341;28;20056;-59
2023/10/07 06:07:00;;;;;;;9.80;3.58;;;15.40;99.90;;;;;;5040650;28;20045;-58
2023/10/07 06:09:28;;;;;;;9.18;3.60;;;15.50;99.90;;;;;;5043882;28;20057;-55
2023/10/07 06:11:59;;;;;;;11.32;3.42;;;15.40;99.90;;;;;;5044443;28;20045;-55
2023/10/07 06:14:26;;;;;;;7.25;3.50;;;15.50;99.90;;;;;;5037612;28;20149;-56
2023/10/07 06:16:53;;;;;;;12.07;3.75;;;15.50;99.90;;;;;;5039621;28;20048;-55
2023/10/07 06:19:23;;;;;;;7.97;3.35;;;15.50;99.90;;;;;;5044157;28;20049;-57
2023/10/07 06:21:52;;;;;;;9.10;3.13;;;15.50;99.90;;;;;;5033220;28;20040;-56
2023/10/07 06:24:21;;;;;;;11.95;4.55;;;15.50;99.90;;;;;;5033324;28;20559;-56
2023/10/07 06:26:48;;;;;;;9.95;3.40;;;15.50;99.90;;;;;;5038065;28;20041;-57
2023/10/07 06:29:18;;;;;;;13.85;3.50;;;15.60;99.90;;;;;;5040967;28;20231;-56
2023/10/07 06:31:55;;;;;;;8.88;3.20;;;15.60;99.90;;;;;;5029180;28;20059;-56
2023/10/07 06:34:25;;;;;;;12.38;3.58;;;15.60;99.90;;;;;;5034599;28;20049;-54
2023/10/07 06:36:52;;;;;;;7.75;3.72;;;15.70;99.90;;;;;;5043770;28;20352;-56
2023/10/07 06:39:27;;;;;;;11.77;4.10;;;15.70;99.90;;;;;;5053331;28;20114;-55
2023/10/07 06:41:57;;;;;;;7.10;2.80;;;15.70;99.90;;;;;;5047270;28;20060;-55
2023/10/07 06:44:24;;;;;;;8.10;3.03;;;15.80;99.90;;;;;;5053399;28;20505;-54
2023/10/07 06:47:02;;;;;;;9.63;3.03;;;15.80;99.90;;;;;;5053387;28;20091;-54
2023/10/07 06:49:39;;;;;;;11.75;3.35;;;15.80;99.90;;;;;;5055338;28;20057;-55
2023/10/07 06:52:06;;;;;;;7.28;3.72;;;15.80;99.90;;;;;;5061813;28;20042;-55
2023/10/07 06:54:33;;;;;;;10.45;3.53;;;15.90;99.90;;;;;;5032636;28;20056;-55
2023/10/07 06:57:01;;;;;;;7.00;3.15;;;15.90;99.90;;;;;;5031208;28;20459;-54
2023/10/07 06:59:28;;;;;;;11.57;2.90;;;15.90;99.90;;;;;;5042957;28;20246;-55
2023/10/07 07:01:56;;;;;;;7.95;2.67;;;15.90;99.90;;;;;;5037289;28;20068;-56
2023/10/07 07:04:23;;;;;;;6.43;2.90;;;16.00;99.90;;;;;;5044514;28;20114;-54
2023/10/07 07:06:58;;;;;;;12.68;3.38;;;16.00;99.90;;;;;;5042306;28;20103;-55
2023/10/07 07:12:12;;;;;;;9.15;3.25;;;16.10;99.90;;;;;;5031835;28;20045;-54
2023/10/07 07:14:46;;;;;;;7.40;3.28;;;16.10;99.90;;;;;;5041725;28;20053;-55
2023/10/07 07:22:43;;;;;;;9.07;3.67;;;16.10;99.90;;;;;;5032578;28;20104;-55
2023/10/07 07:27:50;;;;;;;8.18;4.68;;;16.20;99.90;;;;;;5046663;28;20049;-56
2023/10/07 07:30:22;;;;;;;11.23;3.47;;;16.20;99.90;;;;;;5042193;28;20044;-57
2023/10/07 07:32:55;;;;;;;10.25;3.25;;;16.30;99.90;;;;;;5039724;28;20144;-55
2023/10/07 07:35:37;;;;;;;9.07;3.47;;;16.30;99.90;;;;;;5049473;28;20096;-57
2023/10/07 07:38:29;;;;;;;8.48;4.22;;;16.40;99.90;;;;;;5053252;28;20049;-55
2023/10/07 07:43:51;;;;;;;9.40;3.30;;;16.40;99.90;;;;;;5009938;28;20049;-56
2023/10/07 07:46:18;;;;;;;12.00;4.20;;;16.50;99.90;;;;;;5049597;28;20045;-54
2023/10/07 07:48:50;;;;;;;10.43;4.15;;;16.50;99.90;;;;;;5043823;28;20048;-55
2023/10/07 07:51:17;;;;;;;8.23;3.83;;;16.60;99.90;;;;;;5054244;28;20048;-55
2023/10/07 07:53:44;;;;;;;8.38;3.30;;;16.60;99.90;;;;;;5046624;28;20049;-54
2023/10/07 07:56:14;;;;;;;9.77;3.72;;;16.70;99.90;;;;;;5030795;28;20133;-54
2023/10/07 07:58:41;;;;;;;7.15;2.97;;;16.70;99.90;;;;;;5038065;28;20060;-56
2023/10/07 08:01:15;;;;;;;10.90;2.90;;;16.80;99.90;;;;;;5050726;28;20060;-54
2023/10/07 08:03:42;;;;;;;9.38;3.22;;;16.80;99.90;;;;;;5037548;28;20049;-56
2023/10/07 08:06:19;;;;;;;9.50;3.60;;;16.90;99.90;;;;;;5042794;28;20055;-56
2023/10/07 08:08:47;;;;;;;10.82;4.50;;;17.00;99.90;;;;;;5036776;28;20133;-55
2023/10/07 08:11:17;;;;;;;19.92;4.30;;;17.00;99.90;;;;;;5035570;28;20416;-53
2023/10/07 08:13:45;;;;;;;11.20;3.55;;;17.10;99.90;;;;;;5038620;28;20465;-54
2023/10/07 08:16:18;;;;;;;8.85;3.40;;;17.20;99.90;;;;;;5043188;28;20051;-55
2023/10/07 08:18:46;;;;;;;8.40;2.92;;;17.20;99.90;;;;;;5054789;28;20508;-54
2023/10/07 08:21:13;;;;;;;10.38;3.85;;;17.30;99.90;;;;;;5039351;28;20057;-55
2023/10/07 08:23:44;;;;;;;10.45;3.40;;;17.40;99.90;;;;;;5034219;28;20048;-57
2023/10/07 08:26:20;;;;;;;14.90;4.28;;;17.50;99.90;;;;;;5038694;28;21490;-57
2023/10/07 08:28:59;;;;;;;10.00;3.03;;;17.50;99.90;;;;;;5026473;28;20068;-56
2023/10/07 08:31:39;;;;;;;13.57;3.75;;;17.60;99.90;;;;;;5033869;28;20036;-56
2023/10/07 08:36:37;;;;;;;12.52;4.65;;;17.80;99.90;;;;;;5038330;28;20284;-58
2023/10/07 08:39:13;;;;;;;15.43;4.13;;;17.80;99.90;;;;;;5015761;28;20129;-56
2023/10/07 08:41:50;;;;;;;10.45;3.15;;;17.90;99.90;;;;;;5041313;28;20048;-56
2023/10/07 08:44:17;;;;;;;7.55;3.85;;;18.10;99.90;;;;;;5031182;28;20050;-56
2023/10/07 08:46:53;;;;;;;7.70;4.63;;;18.30;99.90;;;;;;5042720;28;20075;-56
2023/10/07 08:49:26;;;;;;;20.88;4.20;;;18.50;99.90;;;;;;5027969;28;20049;-57
2023/10/07 08:51:54;;;;;;;10.35;3.13;;;18.70;99.90;;;;;;5045697;28;20102;-56
2023/10/07 08:54:37;;;;;;;7.50;3.03;;;18.90;99.90;;;;;;5053763;28;20663;-56
2023/10/07 08:57:38;;;;;;;10.63;3.53;;;19.10;99.90;;;;;;5049565;28;20084;-57
2023/10/07 08:59:59;;;;;;;8.07;3.22;;;19.20;99.90;;;;;;5041680;28;20037;-56
2023/10/07 09:02:26;;;;;;;6.90;3.30;;;19.50;99.90;;;;;;5033226;28;20136;-55
2023/10/07 09:04:55;;;;;;;11.63;3.92;;;19.60;99.90;;;;;;5032254;28;20127;-56
2023/10/07 09:07:22;;;;;;;8.85;3.10;;;19.70;99.90;;;;;;5047948;28;20052;-56
2023/10/07 09:09:49;;;;;;;7.32;3.63;;;19.60;99.90;;;;;;5049083;28;20051;-56
2023/10/07 09:12:18;;;;;;;8.68;4.20;;;19.50;99.90;;;;;;5043403;28;20045;-55
2023/10/07 09:14:57;;;;;;;6.45;2.88;;;19.30;99.90;;;;;;5043226;28;20481;-56
2023/10/07 09:17:26;;;;;;;9.85;4.65;;;19.30;99.90;;;;;;5042252;28;20041;-58
2023/10/07 09:19:58;;;;;;;10.75;3.70;;;19.30;99.90;;;;;;5032613;28;20063;-58
2023/10/07 09:22:33;;;;;;;6.95;3.13;;;19.40;99.90;;;;;;5037781;28;20521;-57
2023/10/07 09:25:29;;;;;;;8.70;3.65;;;19.40;99.90;;;;;;5024139;28;20055;-59
2023/10/07 09:27:58;;;;;;;11.38;3.83;;;19.50;99.90;;;;;;5023606;28;20094;-57
2023/10/07 09:33:17;;;;;;;7.30;3.38;;;19.60;99.90;;;;;;5031084;28;20052;-56
2023/10/07 09:35:46;;;;;;;;;;;19.60;99.90;;;;;;5067634;28;20557;-56
2023/10/07 09:38:27;;;;;;;5.45;3.42;;;19.60;99.90;;;;;;5046215;28;19944;-58
2023/10/07 09:43:27;;;;;;;8.35;3.67;;;19.70;99.90;;;;;;5049841;28;20051;-57
2023/10/07 09:45:54;;;;;;;9.38;4.05;;;19.80;99.90;;;;;;5037139;28;20463;-58
2023/10/07 09:48:31;;;;;;;9.63;3.38;;;19.90;99.90;;;;;;5014379;28;20064;-57
2023/10/07 09:50:58;;;;;;;9.10;3.58;;;19.90;99.90;;;;;;5038228;28;20151;-57
2023/10/07 09:53:49;;;;;;;8.65;3.70;;;20.00;99.90;;;;;;5041483;28;20048;-56
2023/10/07 09:56:43;;;;;;;7.13;3.42;;;20.00;99.90;;;;;;5022046;28;20062;-56
2023/10/07 09:59:15;;;;;;;;;;;20.10;99.90;;;;;;5034455;28;20083;-54
2023/10/07 10:01:54;;;;;;;7.57;3.22;;;20.10;99.90;;;;;;5027427;28;19971;-56
2023/10/07 10:04:34;;;;;;;7.20;3.28;;;20.20;99.90;;;;;;5045326;28;20037;-56
2023/10/07 10:07:16;;;;;;;6.78;3.42;;;20.20;99.90;;;;;;5048109;28;20052;-56
2023/10/07 10:10:04;;;;;;;10.73;4.35;;;20.30;99.90;;;;;;5051769;28;20114;-56
2023/10/07 10:17:48;;;;;;;7.28;4.20;;;20.60;99.90;;;;;;5053741;28;20048;-56
2023/10/07 10:20:18;;;;;;;7.55;3.63;;;20.60;99.90;;;;;;5017008;28;20044;-56
2023/10/07 10:22:52;;;;;;;5.65;3.40;;;20.60;99.90;;;;;;5054389;28;20052;-56
2023/10/07 10:25:43;;;;;;;8.38;4.18;;;20.60;99.90;;;;;;5036855;28;20152;-54
2023/10/07 10:28:10;;;;;;;10.85;4.60;;;20.60;99.90;;;;;;5043339;28;20132;-56
2023/10/07 10:30:47;;;;;;;6.53;3.33;;;20.60;99.90;;;;;;5015977;28;20048;-57
2023/10/07 10:33:19;;;;;;;7.68;3.65;;;20.60;99.90;;;;;;5050290;28;20516;-56
2023/10/07 10:35:52;;;;;;;6.60;3.50;;;20.70;99.90;;;;;;5045519;28;20438;-56
2023/10/07 10:38:19;;;;;;;6.07;3.17;;;20.80;99.90;;;;;;5034915;28;20053;-55
2023/10/07 10:40:46;;;;;;;8.98;3.80;;;20.90;99.90;;;;;;5044977;28;20050;-57
2023/10/07 10:43:25;;;;;;;6.10;3.15;;;20.80;99.90;;;;;;5040514;28;20049;-57
2023/10/07 10:46:05;;;;;;;11.60;4.22;;;20.80;99.90;;;;;;5023633;28;20103;-57
2023/10/07 10:48:34;;;;;;;8.40;3.55;;;20.90;99.90;;;;;;4670809;28;9999751;-55
2023/10/07 10:51:08;;;;;;;9.30;4.38;;;21.00;99.90;;;;;;5021738;28;20474;-55
2023/10/07 10:53:36;;;;;;;5.93;3.67;;;21.00;99.90;;;;;;5026644;28;20060;-56
2023/10/07 10:56:03;;;;;;;6.25;3.60;;;21.10;99.90;;;;;;5036175;28;20044;-55
2023/10/07 10:58:30;;;;;;;7.55;3.55;;;21.10;99.90;;;;;;5022161;28;20049;-55
2023/10/07 11:00:57;;;;;;;7.93;3.63;;;21.20;99.90;;;;;;5039889;28;20070;-55
2023/10/07 11:03:24;;;;;;;7.05;4.07;;;21.30;99.90;;;;;;5033683;28;20398;-57
2023/10/07 11:05:56;;;;;;;11.48;3.85;;;21.40;99.90;;;;;;5037719;28;20284;-55
2023/10/07 11:08:26;;;;;;;7.05;3.53;;;21.50;99.90;;;;;;5048819;28;20377;-56
2023/10/07 11:10:55;;;;;;;7.05;3.10;;;21.50;99.90;;;;;;5013148;28;20049;-57
2023/10/07 11:13:22;;;;;;;7.03;3.83;;;21.60;99.90;;;;;;5026447;28;20041;-55
2023/10/07 11:16:09;;;;;;;7.25;3.78;;;21.70;99.90;;;;;;5048522;28;20617;-58
2023/10/07 11:18:38;;;;;;;8.35;2.97;;;21.60;99.90;;;;;;5039230;28;20518;-57
2023/10/07 11:21:18;;;;;;;8.88;4.25;;;21.70;99.90;;;;;;5050612;28;20420;-55
2023/10/07 11:23:46;;;;;;;9.70;3.20;;;21.60;99.90;;;;;;5036178;28;20480;-55
2023/10/07 11:26:14;;;;;;;8.90;3.75;;;21.60;99.90;;;;;;5037417;28;20072;-57
2023/10/07 11:28:43;;;;;;;8.55;4.03;;;21.70;99.90;;;;;;5049968;28;20048;-57
2023/10/07 11:31:10;;;;;;;6.70;3.42;;;21.80;99.90;;;;;;5011154;28;20149;-57
2023/10/07 11:33:37;;;;;;;8.30;3.75;;;21.90;99.90;;;;;;5055147;28;20484;-56
2023/10/07 11:36:08;;;;;;;9.80;3.90;;;22.00;99.90;;;;;;5039971;28;20085;-58
2023/10/07 11:38:34;;;;;;;9.70;3.97;;;22.10;99.90;;;;;;5046355;28;20495;-57
2023/10/07 11:41:06;;;;;;;12.23;4.03;;;22.10;99.90;;;;;;5034249;28;20049;-56
2023/10/07 11:43:43;;;;;;;10.60;4.03;;;22.20;99.90;;;;;;5036188;28;20472;-59
2023/10/07 11:46:13;;;;;;;9.27;4.47;;;22.30;99.90;;;;;;5026680;28;20053;-56
2023/10/07 11:48:41;;;;;;;6.35;3.60;;;22.50;99.90;;;;;;5051080;28;20053;-55
2023/10/07 11:51:08;;;;;;;8.20;3.97;;;22.50;99.90;;;;;;5055631;28;20045;-57
2023/10/07 11:53:35;;;;;;;8.85;3.35;;;22.50;99.90;;;;;;5039346;28;20049;-55
2023/10/07 11:56:05;;;;;;;6.43;3.17;;;22.60;99.90;;;;;;5042415;28;20103;-58
2023/10/07 11:58:32;;;;;;;10.55;3.30;;;22.70;99.90;;;;;;5029502;28;20135;-56
2023/10/07 12:01:03;;;;;;;8.30;3.85;;;22.70;99.90;;;;;;5052155;28;20049;-57
2023/10/07 12:03:32;;;;;;;7.93;3.00;;;22.80;99.90;;;;;;5047371;28;20045;-57
2023/10/07 12:05:59;;;;;;;6.60;3.55;;;22.90;99.90;;;;;;5036280;28;20115;-57
2023/10/07 12:08:26;;;;;;;11.60;4.50;;;22.90;99.90;;;;;;5032734;28;20515;-57
2023/10/07 12:10:56;;;;;;;8.77;3.95;;;23.00;99.90;;;;;;5054143;28;20063;-57
2023/10/07 12:13:26;;;;;;;9.20;3.83;;;23.10;99.90;;;;;;5031847;28;20146;-56
2023/10/07 12:15:53;;;;;;;16.13;3.97;;;23.10;99.90;;;;;;5048919;28;20340;-56
2023/10/07 12:18:31;;;;;;;11.40;4.15;;;23.10;99.90;;;;;;5038630;28;20056;-57
2023/10/07 12:21:00;;;;;;;13.55;4.43;;;23.10;99.90;;;;;;5047647;28;20083;-56
2023/10/07 12:23:28;;;;;;;8.68;4.03;;;23.30;99.90;;;;;;5038221;28;20094;-56
2023/10/07 12:25:56;;;;;;;15.65;4.22;;;23.40;99.90;;;;;;5051973;28;20079;-56
2023/10/07 12:28:24;;;;;;;7.45;4.05;;;23.50;99.90;;;;;;5023937;28;20364;-56
2023/10/07 12:30:52;;;;;;;12.40;4.00;;;23.50;99.90;;;;;;5052021;28;20051;-57
2023/10/07 12:33:19;;;;;;;10.50;4.10;;;23.50;99.90;;;;;;5038040;28;20087;-56
2023/10/07 12:36:09;;;;;;;9.37;4.30;;;23.50;99.90;;;;;;5049412;28;20387;-56
2023/10/07 12:38:37;;;;;;;11.27;3.80;;;23.50;99.90;;;;;;5037213;28;20057;-56
2023/10/07 12:41:07;;;;;;;8.07;3.83;;;23.50;99.90;;;;;;5051224;28;20049;-54
2023/10/07 12:43:34;;;;;;;10.50;4.57;;;23.60;99.90;;;;;;5042600;28;20053;-56
2023/10/07 12:46:02;;;;;;;9.52;4.53;;;23.60;99.90;;;;;;5048685;28;20037;-56
2023/10/07 12:48:29;;;;;;;7.32;3.83;;;23.70;99.90;;;;;;5038697;28;20523;-56
2023/10/07 12:50:55;;;;;;;10.13;4.38;;;23.70;99.90;;;;;;5040374;28;20049;-56
2023/10/07 12:53:23;;;;;;;8.77;4.00;;;23.90;99.90;;;;;;5038144;28;20048;-58
2023/10/07 12:55:50;;;;;;;9.77;3.90;;;24.00;99.90;;;;;;5048245;28;20055;-57
2023/10/07 12:58:18;;;;;;;10.93;4.32;;;24.20;99.90;;;;;;5027593;28;20080;-57
2023/10/07 13:00:45;;;;;;;9.68;4.07;;;24.40;99.90;;;;;;5053403;28;20067;-56
2023/10/07 13:03:12;;;;;;;11.07;4.63;;;24.50;99.90;;;;;;5047852;28;20053;-56
2023/10/07 13:05:42;;;;;;;10.85;4.78;;;24.70;99.90;;;;;;5026749;28;20539;-56
2023/10/07 13:08:12;;;;;;;8.30;3.95;;;24.70;99.90;;;;;;5038731;28;20041;-58
2023/10/07 13:10:40;;;;;;;9.98;4.05;;;24.70;99.90;;;;;;5027299;28;20305;-57
2023/10/07 13:13:07;;;;;;;8.98;4.93;;;24.60;99.90;;;;;;5020252;28;20049;-56
2023/10/07 13:15:35;;;;;;;14.52;5.07;;;24.60;99.90;;;;;;5025539;28;20079;-57
2023/10/07 13:18:02;;;;;;;11.10;5.10;;;24.50;99.90;;;;;;5049054;28;20516;-57
2023/10/07 13:20:30;;;;;;;9.15;4.40;;;24.50;99.90;;;;;;5027545;28;20494;-56
2023/10/07 13:22:57;;;;;;;10.80;4.20;;;24.50;99.90;;;;;;5035585;28;20061;-57
2023/10/07 13:25:26;;;;;;;9.85;4.00;;;24.40;99.90;;;;;;5009092;28;20118;-58
2023/10/07 13:27:56;;;;;;;9.57;4.43;;;24.40;99.90;;;;;;5019693;28;20051;-56
2023/10/07 13:30:25;;;;;;;10.35;4.70;;;24.40;99.90;;;;;;5047411;28;20045;-55
2023/10/07 13:32:54;;;;;;;8.77;4.18;;;24.40;99.90;;;;;;5049579;28;20288;-56
2023/10/07 13:35:22;;;;;;;9.18;4.05;;;24.40;99.90;;;;;;5038547;28;20102;-56
2023/10/07 13:37:51;;;;;;;12.55;5.28;;;24.50;99.90;;;;;;5043192;28;20103;-55
2023/10/07 13:40:19;;;;;;;10.35;4.43;;;24.60;99.90;;;;;;5038735;28;20084;-56
2023/10/07 13:42:53;;;;;;;10.95;5.03;;;24.70;99.90;;;;;;5028797;28;20142;-55
2023/10/07 13:45:24;;;;;;;12.38;5.72;;;24.70;99.60;;;;;;5042095;28;20052;-56
2023/10/07 13:47:51;;;;;;;9.60;4.50;;;24.60;99.90;;;;;;5040054;28;20049;-55
2023/10/07 13:50:28;;;;;;;14.95;6.00;;;24.60;99.90;;;;;;5023776;28;20045;-56
2023/10/07 13:53:09;;;;;;;11.70;5.20;;;24.60;99.80;;;;;;5036059;28;20058;-56
2023/10/07 13:58:14;;;;;;;12.43;4.32;;;24.60;99.90;;;;;;5019845;28;20056;-56
2023/10/07 14:00:47;;;;;;;11.18;4.97;;;24.60;99.90;;;;;;5040139;28;20073;-55
2023/10/07 14:03:22;;;;;;;16.10;4.32;;;24.60;99.90;;;;;;5042849;28;20416;-55
2023/10/07 14:05:55;;;;;;;10.32;4.55;;;24.70;99.90;;;;;;5032583;28;20053;-56
2023/10/07 14:08:28;;;;;;;10.85;4.82;;;24.90;99.90;;;;;;5036731;28;20053;-55